Time;durP1;ratioP1;P1;durP2;ratioP2;P2;SDS_P1;SDS_P2;PMS_P1;PMS_P2;Temp;Humidity;BMP_temperature;BMP_pressure;BME280_temperature;BME280_humidity;BME280_pressure;Samples;Min_cycle;Max_cycle;Signal;HPM_P1;HPM_P2
2024/04/13 00:00:10;;;;;;;1.53;1.20;;;16.10;50.00;16.60;99008.00;;;;5346735;26;20412;-57
2024/04/13 00:02:42;;;;;;;1.30;1.20;;;16.10;50.00;16.60;99003.00;;;;5347299;26;20279;-57
2024/04/13 00:05:10;;;;;;;1.13;1.10;;;16.10;50.00;16.60;99000.00;;;;5346860;26;20821;-57
2024/04/13 00:07:39;;;;;;;1.30;1.20;;;16.10;50.00;16.60;99004.00;;;;5346993;26;20722;-57
2024/04/13 00:10:06;;;;;;;1.20;1.20;;;16.10;50.00;16.60;98998.00;;;;5347188;26;20352;-58
2024/04/13 00:12:35;;;;;;;1.20;1.20;;;16.10;50.00;16.50;98997.00;;;;5346874;26;20232;-57
2024/04/13 00:15:02;;;;;;;1.10;1.10;;;16.00;49.90;16.50;99000.00;;;;5346837;26;20357;-58
2024/04/13 00:17:31;;;;;;;1.27;1.17;;;16.10;50.00;16.50;99003.00;;;;5346537;26;20233;-58
2024/04/13 00:20:00;;;;;;;1.10;1.10;;;16.10;50.00;16.50;99002.00;;;;5346501;26;20240;-57
2024/04/13 00:22:29;;;;;;;1.43;1.23;;;16.00;49.90;16.50;99004.00;;;;5346740;26;20281;-57
2024/04/13 00:24:55;;;;;;;1.10;1.10;;;16.00;49.90;16.50;99003.00;;;;5346766;26;20330;-57
2024/04/13 00:27:25;;;;;;;1.10;1.10;;;16.00;50.00;16.50;98995.00;;;;5346850;26;20241;-57
2024/04/13 00:29:51;;;;;;;1.00;1.00;;;16.00;50.00;16.50;99000.00;;;;5345870;26;20230;-57
2024/04/13 00:32:19;;;;;;;0.90;0.90;;;16.00;49.90;16.50;98990.00;;;;5346809;26;20296;-58
2024/04/13 00:34:47;;;;;;;1.17;1.17;;;16.00;50.00;16.50;98994.00;;;;5346595;26;20318;-57
2024/04/13 00:37:18;;;;;;;1.20;1.20;;;16.00;49.90;16.50;98992.00;;;;5346577;26;20658;-57
2024/04/13 00:39:44;;;;;;;1.30;1.20;;;16.00;50.00;16.50;98987.00;;;;5345769;26;20297;-58
2024/04/13 00:42:14;;;;;;;1.10;1.10;;;16.00;50.00;16.50;98999.00;;;;5347059;26;20253;-59
2024/04/13 00:44:42;;;;;;;1.00;1.00;;;16.00;50.00;16.50;98987.00;;;;5346431;26;20809;-59
2024/04/13 00:47:11;;;;;;;1.30;1.20;;;16.00;50.00;16.50;98988.00;;;;5346329;26;20237;-59
2024/04/13 00:49:39;;;;;;;1.43;1.33;;;16.00;50.00;16.50;98982.00;;;;5346210;26;20301;-59
2024/04/13 00:52:13;;;;;;;1.30;1.27;;;16.00;50.00;16.50;98987.00;;;;5346358;26;20292;-58
2024/04/13 00:54:43;;;;;;;1.30;1.23;;;16.00;50.00;16.50;98988.00;;;;5346363;26;20232;-59
2024/04/13 00:57:12;;;;;;;1.30;1.20;;;16.00;50.00;16.50;98983.00;;;;5346142;26;20709;-59
2024/04/13 00:59:39;;;;;;;1.53;0.97;;;16.00;50.00;16.50;98991.00;;;;5345514;26;20247;-59
2024/04/13 01:02:16;;;;;;;1.30;1.20;;;16.00;50.00;16.40;98987.00;;;;5346104;26;20296;-58
2024/04/13 01:04:48;;;;;;;1.10;1.07;;;16.00;50.00;16.50;98983.00;;;;5346978;26;20313;-59
2024/04/13 01:07:18;;;;;;;1.10;1.10;;;16.00;50.00;16.40;98984.00;;;;5346058;26;20280;-58
2024/04/13 01:09:47;;;;;;;1.07;1.07;;;15.90;50.10;16.40;98983.00;;;;5345077;26;20233;-58
2024/04/13 01:12:17;;;;;;;1.40;1.30;;;16.00;50.00;16.40;98981.00;;;;5345948;26;20296;-58
2024/04/13 01:14:44;;;;;;;1.10;1.10;;;16.00;50.10;16.40;98983.00;;;;5346045;26;20273;-58
2024/04/13 01:17:13;;;;;;;1.23;1.13;;;15.90;50.10;16.40;98995.00;;;;5345932;26;20277;-58
2024/04/13 01:19:41;;;;;;;1.10;1.10;;;16.00;50.10;16.40;98998.00;;;;5345773;26;20296;-59
2024/04/13 01:22:10;;;;;;;1.20;1.10;;;15.90;50.10;16.40;99001.00;;;;5345706;26;20250;-58
2024/04/13 01:24:40;;;;;;;1.47;1.37;;;15.90;50.10;16.40;98998.00;;;;5345938;26;20229;-58
2024/04/13 01:27:11;;;;;;;1.30;1.30;;;15.90;50.10;16.40;98995.00;;;;5346277;26;20284;-58
2024/04/13 01:29:38;;;;;;;1.37;1.27;;;15.90;50.10;16.40;99003.00;;;;5345146;26;20232;-58
2024/04/13 01:32:08;;;;;;;1.10;1.10;;;15.90;50.10;16.40;99004.00;;;;5345719;26;20359;-57
2024/04/13 01:34:34;;;;;;;1.20;1.20;;;15.90;50.10;16.40;99008.00;;;;5346231;26;20353;-57
2024/04/13 01:37:02;;;;;;;1.10;1.10;;;15.90;50.20;16.40;99002.00;;;;5345731;26;20249;-57
2024/04/13 01:39:28;;;;;;;1.27;1.13;;;15.90;50.10;16.40;98995.00;;;;5344789;26;20940;-58
2024/04/13 01:42:00;;;;;;;1.20;1.20;;;15.90;50.10;16.40;99001.00;;;;5346401;26;20359;-58
2024/04/13 01:44:27;;;;;;;1.23;1.13;;;15.90;50.10;16.40;98997.00;;;;5345922;26;20292;-58
2024/04/13 01:46:58;;;;;;;1.30;1.20;;;15.90;50.10;16.40;98997.00;;;;5345867;26;20229;-58
2024/04/13 01:49:24;;;;;;;1.00;1.00;;;15.90;50.10;16.40;98996.00;;;;5344620;26;20791;-59
2024/04/13 01:51:53;;;;;;;1.10;1.10;;;15.90;50.20;16.40;99008.00;;;;5346078;26;20308;-59
2024/04/13 01:54:19;;;;;;;1.43;1.33;;;15.90;50.10;16.40;99005.00;;;;5345481;26;20241;-59
2024/04/13 01:56:47;;;;;;;1.30;1.20;;;15.90;50.10;16.40;99008.00;;;;5345970;26;20331;-59
2024/04/13 01:59:16;;;;;;;1.10;1.10;;;15.90;50.10;16.40;99000.00;;;;5344575;26;20288;-59
2024/04/13 02:01:44;;;;;;;1.07;1.07;;;15.90;50.20;16.30;98992.00;;;;5345273;26;20570;-59
2024/04/13 02:04:11;;;;;;;1.00;1.00;;;15.90;50.20;16.30;98998.00;;;;5346049;26;20317;-59
2024/04/13 02:06:39;;;;;;;1.33;1.23;;;15.90;50.20;16.30;99001.00;;;;5345412;26;20272;-59
2024/04/13 02:09:05;;;;;;;1.20;1.10;;;15.80;50.10;16.30;99007.00;;;;5343090;26;20297;-59
2024/04/13 02:11:34;;;;;;;1.27;1.20;;;15.90;50.20;16.30;99002.00;;;;5345946;26;20746;-59
2024/04/13 02:14:00;;;;;;;1.20;1.20;;;15.90;50.20;16.30;99002.00;;;;5345114;26;20830;-58
2024/04/13 02:16:31;;;;;;;1.20;1.20;;;15.80;50.10;16.30;98997.00;;;;5345202;26;20237;-58
2024/04/13 02:18:57;;;;;;;1.17;1.17;;;15.80;50.10;16.30;98994.00;;;;5345067;26;20362;-58
2024/04/13 02:21:27;;;;;;;1.30;1.20;;;15.80;50.10;16.30;99002.00;;;;5345135;26;20839;-58
2024/04/13 02:23:54;;;;;;;1.20;1.20;;;15.80;50.20;16.30;98998.00;;;;5345068;26;20343;-57
2024/04/13 02:26:22;;;;;;;1.23;1.13;;;15.80;50.10;16.30;99001.00;;;;5345714;26;20284;-58
2024/04/13 02:28:48;;;;;;;1.70;1.27;;;15.80;50.10;16.30;98998.00;;;;5343950;26;20351;-57
2024/04/13 02:31:17;;;;;;;1.17;1.07;;;15.80;50.20;16.30;98993.00;;;;5344895;26;20293;-57
2024/04/13 02:33:46;;;;;;;1.67;1.20;;;15.80;50.20;16.30;98996.00;;;;5344946;26;20300;-57
2024/04/13 02:36:15;;;;;;;1.30;1.20;;;15.80;50.20;16.30;98995.00;;;;5345087;26;20497;-57
2024/04/13 02:38:41;;;;;;;1.13;1.10;;;15.80;50.20;16.30;98991.00;;;;5344012;26;20292;-57
2024/04/13 02:41:10;;;;;;;1.33;1.23;;;15.80;50.20;16.30;98992.00;;;;5345407;26;20251;-57
2024/04/13 02:43:36;;;;;;;1.57;1.30;;;15.80;50.20;16.30;98992.00;;;;5344741;26;20356;-57
2024/04/13 02:46:08;;;;;;;1.10;1.10;;;15.80;50.20;16.30;99000.00;;;;5344689;26;20646;-57
2024/04/13 02:48:34;;;;;;;1.30;1.20;;;15.80;50.20;16.30;98997.00;;;;5343711;26;20291;-58
2024/04/13 02:51:05;;;;;;;1.10;1.10;;;15.80;50.20;16.30;99008.00;;;;5345370;26;20347;-58
2024/04/13 02:53:31;;;;;;;1.07;1.07;;;15.80;50.20;16.30;99008.00;;;;5344601;26;20363;-58
2024/04/13 02:56:00;;;;;;;1.40;1.30;;;15.80;50.20;16.30;99005.00;;;;5345146;26;20237;-57
2024/04/13 02:58:26;;;;;;;1.30;1.20;;;15.80;50.20;16.20;99001.00;;;;5343727;26;20616;-57
2024/04/13 03:00:56;;;;;;;1.00;1.00;;;15.80;50.20;16.20;99009.00;;;;5344453;26;20245;-58
2024/04/13 03:03:23;;;;;;;1.20;1.10;;;15.80;50.20;16.20;99002.00;;;;5345254;26;20241;-58
2024/04/13 03:06:00;;;;;;;1.40;1.30;;;15.80;50.20;16.20;99003.00;;;;5344244;26;20649;-58
2024/04/13 03:08:29;;;;;;;1.20;1.20;;;15.70;50.20;16.20;98999.00;;;;5343272;26;20284;-58
2024/04/13 03:10:59;;;;;;;1.03;1.03;;;15.80;50.20;16.20;99008.00;;;;5344793;26;20241;-58
2024/04/13 03:13:25;;;;;;;1.30;1.20;;;15.70;50.20;16.20;98997.00;;;;5344370;26;20364;-58
2024/04/13 03:16:03;;;;;;;1.10;1.10;;;15.70;50.20;16.20;99003.00;;;;5344108;26;20280;-59
2024/04/13 03:18:30;;;;;;;1.20;1.20;;;15.70;50.20;16.20;99005.00;;;;5343923;26;20233;-58
2024/04/13 03:20:59;;;;;;;1.03;1.03;;;15.70;50.20;16.20;98998.00;;;;5347102;26;20688;-58
2024/04/13 03:23:32;;;;;;;1.10;1.10;;;15.70;50.20;16.20;99004.00;;;;5347456;26;20234;-58
2024/04/13 03:26:02;;;;;;;1.10;1.10;;;15.70;50.20;16.20;98998.00;;;;5348167;26;20249;-57
2024/04/13 03:28:31;;;;;;;1.37;1.27;;;15.70;50.20;16.20;99012.00;;;;5346728;26;20404;-57
2024/04/13 03:31:01;;;;;;;1.40;1.30;;;15.70;50.20;16.20;99012.00;;;;5347493;26;20354;-58
2024/04/13 03:33:27;;;;;;;1.40;1.30;;;15.70;50.20;16.20;99013.00;;;;5347387;26;20272;-57
2024/04/13 03:35:55;;;;;;;1.40;1.20;;;15.70;50.20;16.20;99010.00;;;;5347322;26;20279;-57
2024/04/13 03:38:25;;;;;;;1.37;1.30;;;15.70;50.30;16.20;98998.00;;;;5346518;26;20601;-57
2024/04/13 03:41:05;;;;;;;1.17;1.10;;;15.70;50.20;16.20;99008.00;;;;5347547;26;20359;-57
2024/04/13 03:43:34;;;;;;;1.17;1.17;;;15.70;50.20;16.20;99005.00;;;;5347332;26;20276;-61
2024/04/13 03:46:00;;;;;;;1.20;1.20;;;15.70;50.30;16.20;99003.00;;;;5347738;26;20668;-57
2024/04/13 03:48:28;;;;;;;1.00;1.00;;;15.70;50.30;16.20;99010.00;;;;5346374;26;20338;-58
2024/04/13 03:50:54;;;;;;;1.33;1.23;;;15.70;50.30;16.20;99002.00;;;;5347263;26;20297;-58
2024/04/13 03:53:23;;;;;;;1.40;1.30;;;15.70;50.30;16.20;99006.00;;;;5347245;26;20761;-57
2024/04/13 03:55:49;;;;;;;1.23;1.23;;;15.70;50.30;16.10;99010.00;;;;5347069;26;20309;-57
2024/04/13 03:58:20;;;;;;;1.10;1.10;;;15.70;50.30;16.10;99007.00;;;;5346351;26;20241;-57
2024/04/13 04:00:46;;;;;;;1.40;1.30;;;15.60;50.20;16.20;99009.00;;;;5347091;26;20707;-57
2024/04/13 04:03:15;;;;;;;1.37;1.30;;;15.60;50.20;16.10;99009.00;;;;5347137;26;20237;-58
2024/04/13 04:05:41;;;;;;;1.70;1.33;;;15.70;50.30;16.10;99017.00;;;;5347924;26;20383;-58
2024/04/13 04:08:10;;;;;;;1.20;1.20;;;15.70;50.30;16.10;99020.00;;;;5345869;26;20726;-58
2024/04/13 04:10:36;;;;;;;1.27;1.27;;;15.70;50.30;16.10;99019.00;;;;5347406;26;20245;-57
2024/04/13 04:13:05;;;;;;;1.20;1.13;;;15.70;50.30;16.10;99014.00;;;;5346886;26;20674;-58
2024/04/13 04:15:34;;;;;;;1.13;1.03;;;15.60;50.20;16.10;99018.00;;;;5346941;26;20348;-57
2024/04/13 04:18:03;;;;;;;1.30;1.20;;;15.60;50.20;16.10;99017.00;;;;5345822;26;20600;-57
2024/04/13 04:20:31;;;;;;;1.30;1.20;;;15.60;50.20;16.10;99022.00;;;;5347421;26;20375;-57
2024/04/13 04:22:59;;;;;;;1.20;1.20;;;15.60;50.20;16.10;99019.00;;;;5346760;26;20329;-57
2024/04/13 04:25:26;;;;;;;1.50;1.40;;;15.60;50.20;16.10;99020.00;;;;5346688;26;20293;-57
2024/04/13 04:27:55;;;;;;;1.17;1.10;;;15.60;50.30;16.10;99022.00;;;;5346066;26;20229;-58
2024/04/13 04:30:21;;;;;;;1.40;1.30;;;15.60;50.20;16.10;99013.00;;;;5345990;26;20291;-57
2024/04/13 04:32:52;;;;;;;1.10;1.10;;;15.60;50.20;16.10;99020.00;;;;5346069;26;20285;-58
2024/04/13 04:35:18;;;;;;;1.30;1.20;;;15.60;50.20;16.10;99015.00;;;;5347313;26;20241;-58
2024/04/13 04:37:48;;;;;;;1.00;1.00;;;15.60;50.30;16.10;99016.00;;;;5346220;26;20292;-57
2024/04/13 04:40:14;;;;;;;1.47;1.37;;;15.60;50.20;16.10;99017.00;;;;5346772;26;20366;-57
2024/04/13 04:42:43;;;;;;;1.10;1.10;;;15.60;50.30;16.10;99019.00;;;;5346429;26;20230;-58
2024/04/13 04:45:09;;;;;;;1.50;1.40;;;15.60;50.30;16.10;99024.00;;;;5346444;26;20233;-58
2024/04/13 04:47:37;;;;;;;1.30;1.20;;;15.60;50.30;16.10;99023.00;;;;5346560;26;20284;-57
2024/04/13 04:50:07;;;;;;;1.73;1.53;;;15.60;50.30;16.10;99023.00;;;;5346110;26;20363;-57
2024/04/13 04:52:35;;;;;;;1.20;1.10;;;15.60;50.30;16.10;99024.00;;;;5346266;26;20286;-57
2024/04/13 04:55:01;;;;;;;1.40;1.30;;;15.60;50.30;16.10;99024.00;;;;5346756;26;20359;-57
2024/04/13 04:57:30;;;;;;;1.10;1.10;;;15.60;50.20;16.10;99019.00;;;;5346286;26;20242;-58
2024/04/13 04:59:56;;;;;;;1.30;1.20;;;15.60;50.20;16.10;99027.00;;;;5345286;26;20719;-57
2024/04/13 05:02:25;;;;;;;1.00;1.00;;;15.60;50.20;16.10;99030.00;;;;5346074;26;20275;-58
2024/04/13 05:04:51;;;;;;;1.33;1.23;;;15.60;50.30;16.10;99026.00;;;;5347273;26;20283;-57
2024/04/13 05:07:23;;;;;;;1.20;1.20;;;15.60;50.30;16.10;99038.00;;;;5346114;26;20230;-57
2024/04/13 05:09:49;;;;;;;1.40;1.30;;;15.60;50.30;16.10;99035.00;;;;5345412;26;20432;-58
2024/04/13 05:12:17;;;;;;;1.30;1.20;;;15.60;50.20;16.10;99035.00;;;;5346561;26;20774;-58
2024/04/13 05:14:44;;;;;;;1.27;1.17;;;15.60;50.20;16.10;99042.00;;;;5345917;26;20363;-59
2024/04/13 05:17:13;;;;;;;1.20;1.20;;;15.60;50.30;16.10;99039.00;;;;5346162;26;20334;-59
2024/04/13 05:19:39;;;;;;;1.43;1.33;;;15.60;50.20;16.10;99052.00;;;;5345807;26;20391;-58
2024/04/13 05:22:08;;;;;;;1.30;1.30;;;15.60;50.30;16.10;99052.00;;;;5345893;26;20244;-58
2024/04/13 05:24:37;;;;;;;1.10;1.10;;;15.60;50.30;16.10;99066.00;;;;5345941;26;20307;-58
2024/04/13 05:27:07;;;;;;;1.47;1.37;;;15.60;50.20;16.10;99063.00;;;;5346329;26;20245;-57
2024/04/13 05:29:34;;;;;;;1.30;1.20;;;15.60;50.20;16.10;99059.00;;;;5344977;26;20233;-57
2024/04/13 05:32:03;;;;;;;1.30;1.27;;;15.70;50.30;16.10;99070.00;;;;5345711;26;20303;-57
2024/04/13 05:34:29;;;;;;;1.40;1.30;;;15.70;50.30;16.10;99066.00;;;;5346663;26;20309;-58
2024/04/13 05:36:58;;;;;;;1.27;1.20;;;15.70;50.20;16.10;99064.00;;;;5345790;26;20333;-58
2024/04/13 05:39:24;;;;;;;1.30;1.20;;;15.70;50.20;16.10;99068.00;;;;5344849;26;20363;-58
2024/04/13 05:41:55;;;;;;;1.50;1.40;;;15.70;50.20;16.10;99067.00;;;;5346084;26;20351;-58
2024/04/13 05:44:21;;;;;;;1.27;1.17;;;15.70;50.20;16.10;99068.00;;;;5345736;26;20714;-58
2024/04/13 05:46:50;;;;;;;1.27;1.17;;;15.70;50.10;16.20;99065.00;;;;5345606;26;20643;-58
2024/04/13 05:49:16;;;;;;;1.60;1.50;;;15.70;50.10;16.20;99061.00;;;;5344775;26;20241;-58
2024/04/13 05:51:45;;;;;;;1.40;1.30;;;15.70;50.10;16.20;99066.00;;;;5345519;26;20248;-58
2024/04/13 05:54:11;;;;;;;1.33;1.23;;;15.70;50.00;16.20;99061.00;;;;5345440;26;20229;-58
2024/04/13 05:56:39;;;;;;;1.33;1.23;;;15.70;50.00;16.20;99071.00;;;;5345865;26;20276;-58
2024/04/13 05:59:08;;;;;;;1.47;1.20;;;15.80;49.80;16.20;99071.00;;;;5344596;26;20687;-58
2024/04/13 06:01:37;;;;;;;1.50;1.40;;;15.80;49.80;16.20;99072.00;;;;5345306;26;20299;-58
2024/04/13 06:04:03;;;;;;;1.50;1.40;;;15.80;49.70;16.20;99075.00;;;;5346075;26;20308;-58
2024/04/13 06:06:32;;;;;;;1.50;1.40;;;15.80;49.70;16.30;99075.00;;;;5345484;26;20283;-58
2024/04/13 06:08:58;;;;;;;1.60;1.50;;;15.80;49.60;16.30;99076.00;;;;5344466;26;20702;-58
2024/04/13 06:11:27;;;;;;;1.60;1.50;;;15.80;49.50;16.30;99074.00;;;;5345895;26;20249;-58
2024/04/13 06:13:53;;;;;;;1.23;1.23;;;15.90;49.60;16.30;99070.00;;;;5345206;26;21055;-58
2024/04/13 06:16:24;;;;;;;1.40;1.30;;;15.90;49.60;16.30;99062.00;;;;5345052;26;20618;-58
2024/04/13 06:18:51;;;;;;;1.60;1.50;;;15.90;49.60;16.30;99059.00;;;;5344035;26;20669;-58
2024/04/13 06:21:19;;;;;;;1.50;1.40;;;15.90;49.60;16.30;99060.00;;;;5345058;26;20676;-58
2024/04/13 06:23:45;;;;;;;1.60;1.50;;;15.90;49.60;16.40;99058.00;;;;5345183;26;20699;-58
2024/04/13 06:26:14;;;;;;;1.57;1.47;;;15.90;49.50;16.40;99055.00;;;;5344887;26;20347;-58
2024/04/13 06:28:40;;;;;;;1.30;1.20;;;16.00;49.50;16.40;99058.00;;;;5344222;26;20289;-58
2024/04/13 06:31:09;;;;;;;1.60;1.50;;;16.00;49.50;16.40;99055.00;;;;5344937;26;20245;-58
2024/04/13 06:33:37;;;;;;;1.43;1.33;;;16.00;49.40;16.40;99050.00;;;;5344859;26;20229;-58
2024/04/13 06:36:07;;;;;;;1.60;1.50;;;16.00;49.40;16.40;99053.00;;;;5345655;26;20288;-58
2024/04/13 06:38:33;;;;;;;1.33;1.23;;;16.00;49.40;16.50;99055.00;;;;5343765;26;20233;-58
2024/04/13 06:41:02;;;;;;;1.50;1.40;;;16.10;49.40;16.50;99049.00;;;;5345210;26;20697;-58
2024/04/13 06:43:28;;;;;;;1.50;1.33;;;16.10;49.30;16.50;99054.00;;;;5344772;26;20325;-58
2024/04/13 06:45:56;;;;;;;1.23;1.20;;;16.10;49.30;16.50;99060.00;;;;5344833;26;20245;-58
2024/04/13 06:48:22;;;;;;;1.30;1.30;;;16.10;49.30;16.50;99055.00;;;;5343722;26;20285;-58
2024/04/13 06:50:54;;;;;;;1.60;1.50;;;16.10;49.80;16.50;99049.00;;;;5345302;26;20297;-58
2024/04/13 06:53:20;;;;;;;1.57;1.47;;;16.20;49.10;16.60;99044.00;;;;5344399;26;20293;-58
2024/04/13 06:55:48;;;;;;;1.40;1.30;;;16.20;49.00;16.60;99044.00;;;;5347861;26;20283;-58
2024/04/13 06:58:14;;;;;;;1.27;1.10;;;16.20;49.00;16.60;99042.00;;;;5346831;26;20360;-58
2024/04/13 07:00:43;;;;;;;1.27;1.17;;;16.20;48.90;16.60;99049.00;;;;5347626;26;20346;-58
2024/04/13 07:03:11;;;;;;;1.50;1.40;;;16.30;48.90;16.70;99035.00;;;;5347683;26;20233;-58
2024/04/13 07:05:39;;;;;;;1.50;1.40;;;16.30;48.80;16.70;99028.00;;;;5348142;26;20284;-58
2024/04/13 07:08:08;;;;;;;1.20;1.20;;;16.30;48.80;16.70;99036.00;;;;5346977;26;20237;-58
2024/04/13 07:10:37;;;;;;;1.50;1.40;;;16.30;48.70;16.70;99038.00;;;;5348181;26;20387;-58
2024/04/13 07:13:07;;;;;;;1.50;1.40;;;16.40;48.70;16.70;99035.00;;;;5347746;26;20353;-58
2024/04/13 07:15:36;;;;;;;1.43;1.33;;;16.40;48.60;16.80;99042.00;;;;5347722;26;20241;-58
2024/04/13 07:18:02;;;;;;;1.50;1.40;;;16.40;48.50;16.80;99041.00;;;;5346636;26;20289;-58
2024/04/13 07:20:30;;;;;;;1.60;1.50;;;16.40;48.50;16.80;99037.00;;;;5348179;26;20237;-58
2024/04/13 07:22:56;;;;;;;1.50;1.40;;;16.50;48.50;16.80;99033.00;;;;5347630;26;20360;-58
2024/04/13 07:25:27;;;;;;;1.23;1.20;;;16.40;48.40;16.80;99041.00;;;;5348215;26;20241;-58
2024/04/13 07:27:54;;;;;;;1.20;1.20;;;16.50;48.50;16.80;99035.00;;;;5346811;26;20226;-58
2024/04/13 07:30:22;;;;;;;1.60;1.50;;;16.50;48.40;16.90;99039.00;;;;5347134;26;20284;-58
2024/04/13 07:32:48;;;;;;;1.50;1.40;;;16.50;48.40;16.90;99029.00;;;;5347514;26;20284;-58
2024/04/13 07:35:17;;;;;;;1.50;1.40;;;16.50;48.30;16.90;99035.00;;;;5347118;26;20233;-58
2024/04/13 07:37:43;;;;;;;1.30;1.20;;;16.50;48.30;16.90;99038.00;;;;5346813;26;20351;-58
2024/04/13 07:40:12;;;;;;;1.40;1.30;;;16.50;48.30;16.90;99037.00;;;;5346592;26;20229;-58
2024/04/13 07:42:41;;;;;;;1.50;1.40;;;16.50;48.30;16.90;99037.00;;;;5347299;26;20296;-58
2024/04/13 07:45:10;;;;;;;1.47;1.37;;;16.50;48.30;16.90;99041.00;;;;5347186;26;20233;-58
2024/04/13 07:47:36;;;;;;;1.70;1.60;;;16.60;48.20;16.90;99039.00;;;;5347411;26;20349;-58
2024/04/13 07:50:04;;;;;;;1.03;1.03;;;16.60;48.20;16.90;99044.00;;;;5380413;26;20323;-58
2024/04/13 07:52:30;;;;;;;1.40;1.30;;;16.60;48.20;17.00;99054.00;;;;5382221;26;20284;-58
2024/04/13 07:54:59;;;;;;;1.57;1.47;;;16.60;48.10;17.00;99042.00;;;;5380714;26;20233;-58
2024/04/13 07:57:25;;;;;;;1.57;1.47;;;16.60;48.10;17.00;99050.00;;;;5347162;26;20268;-58
2024/04/13 07:59:56;;;;;;;1.10;1.10;;;16.60;48.00;17.00;99054.00;;;;5346235;26;20237;-58
2024/04/13 08:02:22;;;;;;;1.50;1.40;;;16.70;48.00;17.00;99044.00;;;;5347056;26;20289;-58
2024/04/13 08:04:51;;;;;;;1.50;1.40;;;16.70;48.00;17.00;99044.00;;;;5346885;26;20860;-58
2024/04/13 08:07:17;;;;;;;1.77;1.40;;;16.70;48.00;17.10;99047.00;;;;5345631;26;20233;-58
2024/04/13 08:09:45;;;;;;;1.60;1.50;;;16.80;47.90;17.10;99040.00;;;;5346129;26;21054;-58
2024/04/13 08:12:12;;;;;;;1.40;1.30;;;16.80;47.90;17.10;99035.00;;;;5347561;26;20715;-58
2024/04/13 08:14:41;;;;;;;1.20;1.20;;;16.80;47.80;17.10;99035.00;;;;5346630;26;20627;-58
2024/04/13 08:17:09;;;;;;;1.70;1.60;;;16.80;47.70;17.10;99041.00;;;;5346794;26;20285;-58
2024/04/13 08:19:38;;;;;;;1.40;1.30;;;16.80;47.70;17.10;99036.00;;;;5345894;26;20289;-58
2024/04/13 08:22:04;;;;;;;1.20;1.20;;;16.80;47.70;17.20;99038.00;;;;5346773;26;20323;-58
2024/04/13 08:24:34;;;;;;;1.30;1.30;;;16.90;47.70;17.20;99042.00;;;;5346817;26;20342;-58
2024/04/13 08:27:00;;;;;;;1.67;1.57;;;16.90;47.70;17.20;99038.00;;;;5347264;26;20649;-58
2024/04/13 08:29:29;;;;;;;1.30;1.20;;;16.90;47.60;17.20;99038.00;;;;5345809;26;20301;-58
2024/04/13 08:31:55;;;;;;;1.40;1.30;;;16.90;47.60;17.20;99037.00;;;;5346602;26;20648;-58
2024/04/13 08:34:26;;;;;;;1.40;1.30;;;16.90;47.60;17.20;99031.00;;;;5347290;26;20237;-58
2024/04/13 08:36:53;;;;;;;1.50;1.40;;;16.90;47.60;17.20;99027.00;;;;5346644;26;20276;-58
2024/04/13 08:39:21;;;;;;;1.60;1.50;;;16.90;47.60;17.30;99039.00;;;;5345636;26;20241;-58
2024/04/13 08:42:06;;;;;;;1.30;1.30;;;17.00;47.50;17.30;99031.00;;;;5346961;26;20317;-58
2024/04/13 08:44:36;;;;;;;1.40;1.30;;;16.90;47.50;17.30;99024.00;;;;5346575;26;20276;-58
2024/04/13 08:47:02;;;;;;;1.40;1.30;;;17.00;47.50;17.30;99026.00;;;;5346407;26;20368;-58
2024/04/13 08:49:36;;;;;;;1.10;1.10;;;17.00;47.50;17.30;99023.00;;;;5346243;26;20245;-58
2024/04/13 08:52:06;;;;;;;1.40;1.30;;;17.00;47.50;17.30;99020.00;;;;5346274;26;20292;-58
2024/04/13 08:54:35;;;;;;;1.50;1.40;;;17.00;47.50;17.30;99014.00;;;;5346378;26;20229;-58
2024/04/13 08:57:04;;;;;;;1.30;1.20;;;17.00;47.50;17.30;99013.00;;;;5346866;26;20350;-58
2024/04/13 08:59:33;;;;;;;1.30;1.30;;;17.00;47.50;17.30;99023.00;;;;5345401;26;20835;-58
2024/04/13 09:02:02;;;;;;;1.57;1.40;;;17.00;47.60;17.30;99014.00;;;;5346243;26;20289;-58
2024/04/13 09:04:34;;;;;;;1.47;1.37;;;16.90;47.60;17.30;99020.00;;;;5347329;26;20297;-58
2024/04/13 09:07:01;;;;;;;1.00;1.00;;;16.90;47.60;17.30;99017.00;;;;5346026;26;20233;-58
2024/04/13 09:09:29;;;;;;;1.43;1.13;;;17.00;47.60;17.30;99023.00;;;;5345285;26;20832;-58
2024/04/13 09:11:57;;;;;;;1.33;1.23;;;17.00;47.60;17.30;99027.00;;;;5346551;26;20305;-58
2024/04/13 09:14:26;;;;;;;1.40;1.30;;;17.00;47.70;17.30;99020.00;;;;5345941;26;20297;-58
2024/04/13 09:16:52;;;;;;;1.50;1.40;;;17.00;47.60;17.30;99027.00;;;;5345672;26;20296;-58
2024/04/13 09:19:22;;;;;;;1.40;1.30;;;17.00;47.70;17.30;99025.00;;;;5345666;26;20238;-58
2024/04/13 09:21:55;;;;;;;1.20;1.20;;;17.00;47.70;17.30;99017.00;;;;5345732;26;20281;-58
2024/04/13 09:24:21;;;;;;;1.47;1.37;;;17.00;47.70;17.30;99018.00;;;;5346012;26;20272;-58
2024/04/13 09:26:51;;;;;;;1.30;1.20;;;17.00;47.70;17.30;99018.00;;;;5345983;26;20238;-58
2024/04/13 09:29:25;;;;;;;1.40;1.30;;;17.00;47.70;17.30;99011.00;;;;5345000;26;20230;-58
2024/04/13 09:31:53;;;;;;;1.23;1.20;;;17.00;47.70;17.30;99009.00;;;;5345875;26;20342;-58
2024/04/13 09:34:20;;;;;;;1.20;1.20;;;17.00;47.70;17.30;99007.00;;;;5345853;26;20304;-58
2024/04/13 09:37:00;;;;;;;1.20;1.20;;;17.00;47.70;17.30;99004.00;;;;5345752;26;20718;-58
2024/04/13 09:39:26;;;;;;;1.50;1.40;;;17.00;47.70;17.30;99001.00;;;;5345012;26;20229;-58
2024/04/13 09:41:55;;;;;;;1.30;1.20;;;17.00;47.70;17.30;98997.00;;;;5345720;26;20253;-58
2024/04/13 09:44:25;;;;;;;1.50;1.40;;;17.00;47.80;17.30;99000.00;;;;5345726;26;20328;-58
2024/04/13 09:46:54;;;;;;;1.20;1.10;;;17.00;47.70;17.30;98996.00;;;;5345846;26;20286;-58
2024/04/13 09:49:20;;;;;;;1.40;1.30;;;17.00;47.80;17.30;98992.00;;;;5345442;26;20300;-58
2024/04/13 09:51:50;;;;;;;1.50;1.40;;;17.00;47.80;17.30;98993.00;;;;5345363;26;20355;-58
2024/04/13 09:54:20;;;;;;;1.30;1.20;;;17.00;47.90;17.30;98989.00;;;;5345490;26;20316;-58
2024/04/13 09:56:49;;;;;;;1.20;1.20;;;17.00;47.80;17.30;98990.00;;;;5346018;26;20625;-58
2024/04/13 09:59:17;;;;;;;1.40;1.30;;;17.00;47.90;17.30;98989.00;;;;5344525;26;20344;-58
2024/04/13 10:01:46;;;;;;;1.43;1.37;;;17.00;47.90;17.30;98983.00;;;;5345305;26;20662;-58
2024/04/13 10:04:13;;;;;;;1.40;1.37;;;17.00;47.90;17.30;98974.00;;;;5345248;26;20297;-58
2024/04/13 10:06:43;;;;;;;1.40;1.30;;;17.00;47.90;17.30;98975.00;;;;5346178;26;20234;-58
2024/04/13 10:09:16;;;;;;;1.40;1.30;;;17.00;47.90;17.30;98966.00;;;;5344543;26;20264;-58
2024/04/13 10:11:52;;;;;;;1.33;1.23;;;17.00;47.90;17.30;98966.00;;;;5345997;26;20297;-58
2024/04/13 10:14:23;;;;;;;1.20;1.20;;;17.00;47.90;17.30;98962.00;;;;5345251;26;20288;-58
2024/04/13 10:16:53;;;;;;;1.13;1.13;;;17.00;47.90;17.30;98959.00;;;;5345358;26;20233;-58
2024/04/13 10:19:22;;;;;;;1.27;1.20;;;17.00;48.00;17.40;98948.00;;;;5345029;26;20364;-58
2024/04/13 10:21:51;;;;;;;1.37;1.27;;;17.00;48.00;17.30;98950.00;;;;5345077;26;20354;-58
2024/04/13 10:24:18;;;;;;;1.30;1.20;;;17.00;48.00;17.40;98950.00;;;;5345067;26;20344;-58
2024/04/13 10:26:49;;;;;;;1.00;1.00;;;17.00;48.00;17.40;98949.00;;;;5345717;26;20242;-58
2024/04/13 10:29:25;;;;;;;1.10;1.10;;;17.00;48.00;17.40;98945.00;;;;5342698;26;20787;-58
2024/04/13 10:31:53;;;;;;;1.13;1.13;;;17.00;48.00;17.40;98948.00;;;;5344915;26;20297;-58
2024/04/13 10:34:25;;;;;;;1.60;1.50;;;17.00;48.00;17.40;98934.00;;;;5344939;26;20288;-58
2024/04/13 10:37:00;;;;;;;1.33;1.23;;;17.00;48.00;17.40;98930.00;;;;5344937;26;20271;-58
2024/04/13 10:39:26;;;;;;;1.30;1.30;;;17.00;48.10;17.40;98934.00;;;;5344190;26;20236;-58
2024/04/13 10:41:57;;;;;;;1.47;1.37;;;17.00;48.10;17.40;98926.00;;;;5345423;26;20241;-58
2024/04/13 10:44:24;;;;;;;1.17;1.13;;;17.00;48.10;17.40;98919.00;;;;5344776;26;20367;-58
2024/04/13 10:46:54;;;;;;;1.27;1.27;;;17.00;48.10;17.40;98920.00;;;;5344730;26;20276;-58
2024/04/13 10:49:21;;;;;;;1.37;1.30;;;17.00;48.10;17.40;98919.00;;;;5343540;26;20288;-58
2024/04/13 10:51:50;;;;;;;1.10;1.10;;;17.00;48.10;17.40;98918.00;;;;5344797;26;20245;-58
2024/04/13 10:54:16;;;;;;;1.13;1.13;;;17.00;48.80;17.40;98911.00;;;;5344727;26;20230;-58
2024/04/13 10:56:46;;;;;;;1.30;1.20;;;17.10;48.20;17.40;98912.00;;;;5345029;26;20279;-58
2024/04/13 10:59:17;;;;;;;1.40;1.30;;;17.10;48.20;17.40;98890.00;;;;5343622;26;20700;-58